createdAt,value
2023-03-10T00:03:34.184Z,1.00
2023-03-10T00:08:38.011Z,0.68
2023-03-10T00:13:43.721Z,0.40
2023-03-10T00:18:47.915Z,0.65
2023-03-10T00:23:52.276Z,0.80
2023-03-10T00:28:57.594Z,0.32
2023-03-10T00:34:01.739Z,0.68
2023-03-10T00:39:05.581Z,0.70
2023-03-10T00:44:11.486Z,0.55
2023-03-10T00:49:17.688Z,0.22
2023-03-10T00:54:21.483Z,0.60
2023-03-10T00:59:27.404Z,0.98
2023-03-10T01:04:32.287Z,4.38
2023-03-10T01:09:36.368Z,6.68
2023-03-10T01:14:41.687Z,2.10
2023-03-10T01:19:45.834Z,1.45
2023-03-10T01:24:49.815Z,0.77
2023-03-10T01:29:55.192Z,0.45
2023-03-10T01:35:00.178Z,0.82
2023-03-10T01:40:06.097Z,0.60
2023-03-10T01:45:50.193Z,0.47
2023-03-10T01:50:57.798Z,0.98
2023-03-10T01:56:05.057Z,0.30
2023-03-10T02:01:12.101Z,0.60
2023-03-10T02:06:21.166Z,0.70
2023-03-10T02:11:28.470Z,2.13
2023-03-10T02:16:34.747Z,2.00
2023-03-10T02:21:45.648Z,0.70
2023-03-10T02:26:56.010Z,0.17
2023-03-10T02:32:02.996Z,0.40
2023-03-10T02:37:06.961Z,0.63
2023-03-10T02:42:12.810Z,0.30
2023-03-10T02:47:18.499Z,0.40
2023-03-10T02:52:30.476Z,1.08
2023-03-10T02:57:34.620Z,0.60
2023-03-10T03:02:40.418Z,0.73
2023-03-10T03:07:44.548Z,1.05
2023-03-10T03:12:50.579Z,2.45
2023-03-10T03:17:58.585Z,1.23
2023-03-10T03:23:04.021Z,0.50
2023-03-10T03:28:11.329Z,0.28
2023-03-10T03:33:17.447Z,1.20
2023-03-10T03:38:22.367Z,0.85
2023-03-10T03:43:27.680Z,1.60
2023-03-10T03:48:34.951Z,0.65
2023-03-10T03:53:41.798Z,0.43
2023-03-10T03:58:46.206Z,1.40
2023-03-10T04:03:52.598Z,0.80
2023-03-10T04:08:56.665Z,1.00
2023-03-10T04:14:04.115Z,3.55
2023-03-10T04:19:10.026Z,1.65
2023-03-10T04:24:18.262Z,1.02
2023-03-10T04:29:24.470Z,2.10
2023-03-10T04:34:32.128Z,1.35
2023-03-10T04:39:37.467Z,0.70
2023-03-10T04:44:43.111Z,0.40
2023-03-10T04:49:49.147Z,0.73
2023-03-10T04:54:53.249Z,0.80
2023-03-10T04:59:57.480Z,0.55
2023-03-10T05:05:03.494Z,0.20
2023-03-10T05:10:08.624Z,0.35
2023-03-10T05:15:14.631Z,0.55
2023-03-10T05:20:20.766Z,0.50
2023-03-10T05:25:24.838Z,0.60
2023-03-10T05:30:29.426Z,1.23
2023-03-10T05:35:36.284Z,2.88
2023-03-10T05:40:41.682Z,1.38
2023-03-10T05:45:45.786Z,0.73
2023-03-10T05:51:00.297Z,1.15
2023-03-10T05:56:07.293Z,1.15
2023-03-10T06:01:12.297Z,1.33
2023-03-10T06:06:17.765Z,1.85
2023-03-10T06:11:21.730Z,1.67
2023-03-10T06:16:26.559Z,1.27
2023-03-10T06:21:32.033Z,1.38
2023-03-10T06:26:36.152Z,2.85
2023-03-10T06:31:40.138Z,1.88
2023-03-10T06:36:45.544Z,1.15
2023-03-10T06:41:49.495Z,0.40
2023-03-10T06:46:53.412Z,0.22
2023-03-10T06:51:58.901Z,0.73
2023-03-10T06:57:02.848Z,0.50
2023-03-10T07:02:08.148Z,1.02
2023-03-10T07:07:14.151Z,2.30
2023-03-10T07:12:18.111Z,1.55
2023-03-10T07:17:22.234Z,2.10
2023-03-10T07:22:27.617Z,1.92
2023-03-10T07:27:31.541Z,2.85
2023-03-10T07:32:35.890Z,2.38
2023-03-10T07:37:41.683Z,1.88
2023-03-10T07:42:45.728Z,2.50
2023-03-10T07:47:54.748Z,3.00
2023-03-10T07:53:00.036Z,2.77
2023-03-10T07:58:03.979Z,3.38
2023-03-10T08:03:07.968Z,2.00
2023-03-10T08:08:14.531Z,1.75
2023-03-10T08:13:18.649Z,1.02
2023-03-10T08:18:23.516Z,1.42
2023-03-10T08:23:28.926Z,3.75
2023-03-10T08:28:35.170Z,2.22
2023-03-10T08:33:39.918Z,1.77
2023-03-10T08:38:47.195Z,1.40
2023-03-10T08:43:52.055Z,2.60
2023-03-10T08:48:56.699Z,1.30
2023-03-10T08:54:02.533Z,2.65
2023-03-10T08:59:06.599Z,1.83
2023-03-10T09:04:11.507Z,1.83
2023-03-10T09:09:16.788Z,3.65
2023-03-10T09:14:20.731Z,3.10
2023-03-10T09:19:25.136Z,2.97
2023-03-10T09:24:30.450Z,1.42
2023-03-10T09:29:43.033Z,1.00
2023-03-10T09:34:47.159Z,0.85
2023-03-10T09:39:52.792Z,1.23
2023-03-10T09:45:09.296Z,1.15
2023-03-10T09:50:26.689Z,0.50
2023-03-10T09:55:40.101Z,1.48
2023-03-10T10:00:46.863Z,0.30
2023-03-10T10:05:54.320Z,0.43
2023-03-10T10:11:01.610Z,0.30
2023-03-10T10:16:31.962Z,1.77
2023-03-10T10:21:44.188Z,0.17
2023-03-10T10:26:49.573Z,0.30
2023-03-10T10:32:09.344Z,0.10
2023-03-10T10:37:34.212Z,0.40
2023-03-10T10:47:56.472Z,0.75
2023-03-10T10:53:19.870Z,0.20
2023-03-10T10:58:39.122Z,0.60
2023-03-10T11:03:44.622Z,0.40
2023-03-10T11:08:51.390Z,0.15
2023-03-10T11:14:07.239Z,0.10
2023-03-10T11:19:22.749Z,0.13
2023-03-10T11:24:33.008Z,0.40
2023-03-10T11:29:58.184Z,0.20
2023-03-10T11:35:19.994Z,0.40
2023-03-10T11:40:31.797Z,1.40
2023-03-10T11:45:43.074Z,5.55
2023-03-10T11:50:53.081Z,5.40
2023-03-10T11:55:59.471Z,1.90
2023-03-10T12:01:05.860Z,1.35
2023-03-10T12:06:14.259Z,0.45
2023-03-10T12:11:22.642Z,0.40
2023-03-10T12:16:31.813Z,0.45
2023-03-10T12:21:36.164Z,1.38
2023-03-10T12:27:04.293Z,2.15
2023-03-10T12:32:44.554Z,1.08
2023-03-10T12:37:48.501Z,0.28
2023-03-10T12:42:52.492Z,1.30
2023-03-10T12:48:04.027Z,4.82
2023-03-10T12:53:30.032Z,3.13
2023-03-10T12:58:37.216Z,2.90
2023-03-10T13:03:47.593Z,0.80
2023-03-10T13:08:56.009Z,1.75
2023-03-10T13:14:02.640Z,0.40
2023-03-10T13:19:08.323Z,0.60
2023-03-10T13:24:23.864Z,1.23
2023-03-10T13:29:27.770Z,3.83
2023-03-10T13:34:37.313Z,2.95
2023-03-10T13:39:41.350Z,2.22
2023-03-10T13:44:47.486Z,3.50
2023-03-10T13:49:56.236Z,2.90
2023-03-10T13:55:06.973Z,2.88
2023-03-10T14:00:14.897Z,7.07
2023-03-10T14:05:44.173Z,3.83
2023-03-10T14:10:48.576Z,1.20
2023-03-10T14:15:56.893Z,0.95
2023-03-10T14:21:26.571Z,2.83
2023-03-10T14:26:30.841Z,4.75
2023-03-10T14:31:34.738Z,1.33
2023-03-10T14:36:40.039Z,4.00
2023-03-10T14:41:43.936Z,12.10
2023-03-10T14:46:53.264Z,7.25
2023-03-10T14:51:58.902Z,8.40
2023-03-10T14:57:02.918Z,6.45
2023-03-10T15:02:10.388Z,5.70
2023-03-10T15:12:19.637Z,3.78
2023-03-10T15:17:23.723Z,3.28
2023-03-10T15:22:28.998Z,9.10
2023-03-10T15:27:33.038Z,3.15
2023-03-10T15:32:37.037Z,4.20
2023-03-10T15:37:42.545Z,4.18
2023-03-10T15:42:47.298Z,12.75
2023-03-10T15:47:53.106Z,16.33
2023-03-10T15:52:59.903Z,10.05
2023-03-10T15:58:03.799Z,3.47
2023-03-10T16:03:07.657Z,8.27
2023-03-10T16:08:12.966Z,4.50
2023-03-10T16:13:16.883Z,11.02
2023-03-10T16:18:20.760Z,2.95
2023-03-10T16:23:26.397Z,4.70
2023-03-10T16:28:32.847Z,8.05
2023-03-10T16:33:36.782Z,1.80
2023-03-10T16:38:42.237Z,0.90
2023-03-10T16:43:46.518Z,2.33
2023-03-10T16:48:50.406Z,0.93
2023-03-10T16:53:57.437Z,1.95
2023-03-10T16:59:01.451Z,2.25
2023-03-10T17:04:05.681Z,2.72
2023-03-10T17:09:12.993Z,0.95
2023-03-10T17:14:17.781Z,0.52
2023-03-10T17:19:28.890Z,0.40
2023-03-10T17:24:34.340Z,0.40
2023-03-10T17:29:38.323Z,0.45
2023-03-10T17:34:42.439Z,1.52
2023-03-10T17:39:48.263Z,0.88
2023-03-10T17:44:52.282Z,0.20
2023-03-10T17:50:00.023Z,1.30
2023-03-10T17:55:06.357Z,0.93
2023-03-10T18:00:12.819Z,0.10
2023-03-10T18:05:16.864Z,0.83
2023-03-10T18:10:22.484Z,1.05
2023-03-10T18:15:26.463Z,0.70
2023-03-10T18:20:30.570Z,0.60
2023-03-10T18:25:35.804Z,0.28
2023-03-10T18:30:42.451Z,0.57
2023-03-10T18:35:47.480Z,0.30
2023-03-10T18:40:59.311Z,0.40
2023-03-10T18:46:04.082Z,1.02
2023-03-10T18:51:08.265Z,2.33
2023-03-10T18:56:13.705Z,1.33
2023-03-10T19:01:17.647Z,1.27
2023-03-10T19:06:21.648Z,1.75
2023-03-10T19:11:27.929Z,0.80
2023-03-10T19:16:32.139Z,1.27
2023-03-10T19:21:36.394Z,0.93
2023-03-10T19:26:43.432Z,1.05
2023-03-10T19:31:47.476Z,1.58
2023-03-10T19:36:51.394Z,1.92
2023-03-10T19:41:56.662Z,1.13
2023-03-10T19:47:01.674Z,1.05
2023-03-10T19:52:05.991Z,2.20
2023-03-10T19:57:13.270Z,1.45
2023-03-10T20:02:19.157Z,0.75
2023-03-10T20:07:23.162Z,0.88
2023-03-10T20:12:29.184Z,2.33
2023-03-10T20:17:33.278Z,1.50
2023-03-10T20:22:41.474Z,1.48
2023-03-10T20:27:48.049Z,1.85
2023-03-10T20:32:52.347Z,0.90
2023-03-10T20:37:56.412Z,0.68
2023-03-10T20:43:01.689Z,1.92
2023-03-10T20:48:06.415Z,1.23
2023-03-10T20:53:11.116Z,1.35
2023-03-10T20:58:16.372Z,1.50
2023-03-10T21:03:21.476Z,1.80
2023-03-10T21:08:25.405Z,2.10
2023-03-10T21:13:30.763Z,1.75
2023-03-10T21:18:34.976Z,1.73
2023-03-10T21:23:39.341Z,1.05
2023-03-10T21:28:45.535Z,1.10
2023-03-10T21:33:50.204Z,1.30
2023-03-10T21:38:54.200Z,1.38
2023-03-10T21:44:00.356Z,2.88
2023-03-10T21:49:04.317Z,1.73
2023-03-10T21:54:08.256Z,1.52
2023-03-10T21:59:13.546Z,2.05
2023-03-10T22:04:17.545Z,1.85
2023-03-10T22:09:21.525Z,1.42
2023-03-10T22:14:26.815Z,1.45
2023-03-10T22:19:31.864Z,2.13
2023-03-10T22:24:35.798Z,1.55
2023-03-10T22:29:41.223Z,2.10
2023-03-10T22:34:45.878Z,2.88
2023-03-10T22:39:49.732Z,2.22
2023-03-10T22:44:55.225Z,1.33
2023-03-10T22:49:59.171Z,1.55
2023-03-10T22:55:03.063Z,1.10
2023-03-10T23:00:13.485Z,1.05
2023-03-10T23:05:17.879Z,1.40
2023-03-10T23:10:24.875Z,1.02
2023-03-10T23:15:33.446Z,2.10
2023-03-10T23:20:39.521Z,1.38
2023-03-10T23:25:47.079Z,1.40
2023-03-10T23:30:54.391Z,2.42
2023-03-10T23:35:58.455Z,3.78
2023-03-10T23:41:02.722Z,1.00
2023-03-10T23:46:09.665Z,1.55
2023-03-10T23:51:15.751Z,1.38
2023-03-10T23:56:19.642Z,2.75
